sensor_id;sensor_type;location;lat;lon;timestamp;pressure;altitude;pressure_sealevel;temperature;humidity
3250;BME280;1637;42.020;23.992;2023-05-24T00:01:50;92719.66;;;10.88;100.00
3250;BME280;1637;42.020;23.992;2023-05-24T00:04:17;92707.22;;;10.74;100.00
3250;BME280;1637;42.020;23.992;2023-05-24T00:06:44;92714.53;;;10.70;100.00
3250;BME280;1637;42.020;23.992;2023-05-24T00:09:11;92713.44;;;10.94;100.00
3250;BME280;1637;42.020;23.992;2023-05-24T00:11:39;92700.94;;;10.84;100.00
3250;BME280;1637;42.020;23.992;2023-05-24T00:14:06;92714.31;;;11.15;100.00
3250;BME280;1637;42.020;23.992;2023-05-24T00:16:33;92716.38;;;10.77;100.00
3250;BME280;1637;42.020;23.992;2023-05-24T00:19:01;92707.31;;;10.67;100.00
3250;BME280;1637;42.020;23.992;2023-05-24T00:21:28;92736.88;;;10.87;100.00
3250;BME280;1637;42.020;23.992;2023-05-24T00:23:56;92713.88;;;10.62;100.00
3250;BME280;1637;42.020;23.992;2023-05-24T00:26:23;92711.47;;;10.72;100.00
3250;BME280;1637;42.020;23.992;2023-05-24T00:28:51;92706.31;;;10.84;100.00
3250;BME280;1637;42.020;23.992;2023-05-24T00:31:18;92704.56;;;10.40;100.00
3250;BME280;1637;42.020;23.992;2023-05-24T00:33:45;92713.09;;;10.92;100.00
3250;BME280;1637;42.020;23.992;2023-05-24T00:36:12;92712.84;;;11.10;100.00
3250;BME280;1637;42.020;23.992;2023-05-24T00:38:39;92715.81;;;10.89;100.00
3250;BME280;1637;42.020;23.992;2023-05-24T00:41:06;92711.00;;;10.77;100.00
3250;BME280;1637;42.020;23.992;2023-05-24T00:43:33;92706.34;;;10.81;100.00
3250;BME280;1637;42.020;23.992;2023-05-24T00:46:15;92700.63;;;11.06;100.00
3250;BME280;1637;42.020;23.992;2023-05-24T00:48:44;92699.66;;;10.65;100.00
3250;BME280;1637;42.020;23.992;2023-05-24T00:51:11;92695.69;;;10.77;100.00
3250;BME280;1637;42.020;23.992;2023-05-24T00:53:41;92699.53;;;10.76;100.00
3250;BME280;1637;42.020;23.992;2023-05-24T00:56:08;92693.38;;;10.15;100.00
3250;BME280;1637;42.020;23.992;2023-05-24T00:58:35;92695.66;;;10.50;100.00
3250;BME280;1637;42.020;23.992;2023-05-24T01:01:02;92693.91;;;10.67;100.00
3250;BME280;1637;42.020;23.992;2023-05-24T01:03:31;92692.78;;;10.64;100.00
3250;BME280;1637;42.020;23.992;2023-05-24T01:05:59;92659.41;;;10.42;100.00
3250;BME280;1637;42.020;23.992;2023-05-24T01:08:42;92693.66;;;10.27;100.00
3250;BME280;1637;42.020;23.992;2023-05-24T01:11:16;92693.22;;;10.32;100.00
3250;BME280;1637;42.020;23.992;2023-05-24T01:13:53;92688.72;;;10.22;100.00
3250;BME280;1637;42.020;23.992;2023-05-24T01:16:27;92698.06;;;10.07;100.00
3250;BME280;1637;42.020;23.992;2023-05-24T01:19:04;92688.28;;;9.93;100.00
3250;BME280;1637;42.020;23.992;2023-05-24T01:21:46;92686.47;;;9.83;100.00
3250;BME280;1637;42.020;23.992;2023-05-24T01:24:24;92687.56;;;9.86;100.00
3250;BME280;1637;42.020;23.992;2023-05-24T01:27:05;92687.94;;;10.25;100.00
3250;BME280;1637;42.020;23.992;2023-05-24T01:29:33;92687.22;;;10.21;100.00
3250;BME280;1637;42.020;23.992;2023-05-24T01:32:01;92685.22;;;9.91;100.00
3250;BME280;1637;42.020;23.992;2023-05-24T01:34:28;92693.53;;;10.00;100.00
3250;BME280;1637;42.020;23.992;2023-05-24T01:36:55;92678.34;;;9.94;100.00
3250;BME280;1637;42.020;23.992;2023-05-24T01:39:23;92590.44;;;9.21;100.00
3250;BME280;1637;42.020;23.992;2023-05-24T01:42:03;92649.97;;;9.66;100.00
3250;BME280;1637;42.020;23.992;2023-05-24T01:44:36;92687.97;;;9.84;100.00
3250;BME280;1637;42.020;23.992;2023-05-24T01:47:12;92686.38;;;9.53;100.00
3250;BME280;1637;42.020;23.992;2023-05-24T01:49:49;92691.19;;;9.69;100.00
3250;BME280;1637;42.020;23.992;2023-05-24T01:52:18;92686.56;;;9.73;100.00
3250;BME280;1637;42.020;23.992;2023-05-24T01:54:52;92670.72;;;9.10;100.00
3250;BME280;1637;42.020;23.992;2023-05-24T01:57:19;92684.69;;;9.28;100.00
3250;BME280;1637;42.020;23.992;2023-05-24T01:59:49;92686.25;;;9.22;100.00
3250;BME280;1637;42.020;23.992;2023-05-24T02:02:18;92677.09;;;9.64;100.00
3250;BME280;1637;42.020;23.992;2023-05-24T02:04:45;92682.00;;;9.73;100.00
3250;BME280;1637;42.020;23.992;2023-05-24T02:07:11;92670.56;;;9.28;100.00
3250;BME280;1637;42.020;23.992;2023-05-24T02:09:38;92681.66;;;9.26;100.00
3250;BME280;1637;42.020;23.992;2023-05-24T02:12:07;92681.31;;;9.21;100.00
3250;BME280;1637;42.020;23.992;2023-05-24T02:14:34;92687.19;;;9.46;100.00
3250;BME280;1637;42.020;23.992;2023-05-24T02:17:04;92693.47;;;9.29;100.00
3250;BME280;1637;42.020;23.992;2023-05-24T02:19:31;92694.00;;;9.06;100.00
3250;BME280;1637;42.020;23.992;2023-05-24T02:21:59;92706.97;;;9.11;100.00
3250;BME280;1637;42.020;23.992;2023-05-24T02:24:25;92706.50;;;9.20;100.00
3250;BME280;1637;42.020;23.992;2023-05-24T02:26:52;92709.53;;;9.22;100.00
3250;BME280;1637;42.020;23.992;2023-05-24T02:29:20;92703.50;;;9.14;100.00
3250;BME280;1637;42.020;23.992;2023-05-24T02:31:47;92705.28;;;9.32;100.00
3250;BME280;1637;42.020;23.992;2023-05-24T02:34:17;92706.66;;;9.47;100.00
3250;BME280;1637;42.020;23.992;2023-05-24T02:36:44;92699.31;;;9.58;100.00
3250;BME280;1637;42.020;23.992;2023-05-24T02:39:11;92696.16;;;9.25;100.00
3250;BME280;1637;42.020;23.992;2023-05-24T02:41:38;92701.66;;;9.04;100.00
3250;BME280;1637;42.020;23.992;2023-05-24T02:44:05;92698.47;;;8.68;100.00
3250;BME280;1637;42.020;23.992;2023-05-24T02:46:32;92694.19;;;8.78;100.00
3250;BME280;1637;42.020;23.992;2023-05-24T02:48:59;92696.88;;;8.74;100.00
3250;BME280;1637;42.020;23.992;2023-05-24T02:51:27;92699.22;;;8.72;100.00
3250;BME280;1637;42.020;23.992;2023-05-24T02:53:54;92704.47;;;8.86;100.00
3250;BME280;1637;42.020;23.992;2023-05-24T02:56:21;92688.41;;;8.90;100.00
3250;BME280;1637;42.020;23.992;2023-05-24T02:58:48;92703.81;;;8.68;100.00
3250;BME280;1637;42.020;23.992;2023-05-24T03:01:14;92695.91;;;8.47;100.00
3250;BME280;1637;42.020;23.992;2023-05-24T03:03:41;92702.31;;;8.60;100.00
3250;BME280;1637;42.020;23.992;2023-05-24T03:06:08;92704.56;;;8.72;100.00
3250;BME280;1637;42.020;23.992;2023-05-24T03:08:39;92702.81;;;8.37;100.00
3250;BME280;1637;42.020;23.992;2023-05-24T03:11:06;92704.38;;;8.20;100.00
3250;BME280;1637;42.020;23.992;2023-05-24T03:13:33;92704.84;;;8.85;100.00
3250;BME280;1637;42.020;23.992;2023-05-24T03:16:00;92705.06;;;9.08;100.00
3250;BME280;1637;42.020;23.992;2023-05-24T03:18:27;92711.03;;;9.30;100.00
3250;BME280;1637;42.020;23.992;2023-05-24T03:20:54;92702.63;;;9.28;100.00
3250;BME280;1637;42.020;23.992;2023-05-24T03:23:20;92708.09;;;9.14;100.00
3250;BME280;1637;42.020;23.992;2023-05-24T03:25:49;92703.47;;;9.18;100.00
3250;BME280;1637;42.020;23.992;2023-05-24T03:28:15;92702.88;;;9.44;100.00
3250;BME280;1637;42.020;23.992;2023-05-24T03:30:43;92712.09;;;9.77;100.00
3250;BME280;1637;42.020;23.992;2023-05-24T03:33:10;92704.59;;;10.03;100.00
3250;BME280;1637;42.020;23.992;2023-05-24T03:35:37;92706.19;;;10.34;100.00
3250;BME280;1637;42.020;23.992;2023-05-24T03:38:03;92707.91;;;10.51;100.00
3250;BME280;1637;42.020;23.992;2023-05-24T03:40:30;92709.84;;;10.47;100.00
3250;BME280;1637;42.020;23.992;2023-05-24T03:43:00;92716.22;;;10.87;100.00
3250;BME280;1637;42.020;23.992;2023-05-24T03:45:27;92716.97;;;11.15;99.11
3250;BME280;1637;42.020;23.992;2023-05-24T03:47:53;92714.56;;;11.47;96.92
3250;BME280;1637;42.020;23.992;2023-05-24T03:50:20;92715.41;;;12.70;100.00
3250;BME280;1637;42.020;23.992;2023-05-24T03:52:47;92718.59;;;13.21;91.66
3250;BME280;1637;42.020;23.992;2023-05-24T03:55:14;92725.81;;;13.89;86.08
3250;BME280;1637;42.020;23.992;2023-05-24T03:57:41;92728.09;;;13.58;81.20
3250;BME280;1637;42.020;23.992;2023-05-24T04:00:10;92726.81;;;12.94;84.35
3250;BME280;1637;42.020;23.992;2023-05-24T04:02:37;92725.16;;;12.64;87.10
3250;BME280;1637;42.020;23.992;2023-05-24T04:05:05;92722.94;;;12.59;86.79
3250;BME280;1637;42.020;23.992;2023-05-24T04:07:34;92739.25;;;13.24;84.65
3250;BME280;1637;42.020;23.992;2023-05-24T04:10:02;92723.22;;;13.36;82.00
3250;BME280;1637;42.020;23.992;2023-05-24T04:12:29;92736.59;;;13.56;82.03
3250;BME280;1637;42.020;23.992;2023-05-24T04:14:57;92736.69;;;14.14;79.93
3250;BME280;1637;42.020;23.992;2023-05-24T04:17:26;92734.13;;;14.10;79.84
3250;BME280;1637;42.020;23.992;2023-05-24T04:19:54;92744.00;;;14.46;77.59
3250;BME280;1637;42.020;23.992;2023-05-24T04:22:21;92749.56;;;14.81;74.66
3250;BME280;1637;42.020;23.992;2023-05-24T04:24:48;92743.72;;;15.24;72.58
3250;BME280;1637;42.020;23.992;2023-05-24T04:27:15;92745.91;;;14.74;74.54
3250;BME280;1637;42.020;23.992;2023-05-24T04:29:44;92753.13;;;15.32;71.66
3250;BME280;1637;42.020;23.992;2023-05-24T04:32:14;92724.47;;;15.98;68.48
3250;BME280;1637;42.020;23.992;2023-05-24T04:34:44;92753.34;;;16.57;67.85
3250;BME280;1637;42.020;23.992;2023-05-24T04:37:11;92747.69;;;16.86;65.73
3250;BME280;1637;42.020;23.992;2023-05-24T04:39:42;92759.59;;;17.41;64.39
3250;BME280;1637;42.020;23.992;2023-05-24T04:42:09;92760.09;;;17.80;62.76
3250;BME280;1637;42.020;23.992;2023-05-24T04:44:36;92731.63;;;16.48;66.40
3250;BME280;1637;42.020;23.992;2023-05-24T04:47:05;92756.97;;;17.29;64.85
3250;BME280;1637;42.020;23.992;2023-05-24T04:49:32;92751.81;;;16.69;66.24
3250;BME280;1637;42.020;23.992;2023-05-24T04:52:00;92767.28;;;16.34;68.13
3250;BME280;1637;42.020;23.992;2023-05-24T04:54:27;92767.66;;;16.45;67.99
3250;BME280;1637;42.020;23.992;2023-05-24T04:56:53;92761.16;;;17.21;64.90
3250;BME280;1637;42.020;23.992;2023-05-24T04:59:20;92738.75;;;16.55;67.10
3250;BME280;1637;42.020;23.992;2023-05-24T05:01:48;92783.47;;;16.81;66.14
3250;BME280;1637;42.020;23.992;2023-05-24T05:04:15;92761.50;;;17.01;65.47
3250;BME280;1637;42.020;23.992;2023-05-24T05:06:42;92760.16;;;16.62;67.10
3250;BME280;1637;42.020;23.992;2023-05-24T05:09:10;92762.47;;;16.16;70.52
3250;BME280;1637;42.020;23.992;2023-05-24T05:11:39;92764.31;;;16.97;67.95
3250;BME280;1637;42.020;23.992;2023-05-24T05:14:06;92769.31;;;17.30;67.15
3250;BME280;1637;42.020;23.992;2023-05-24T05:16:34;92768.81;;;17.53;66.26
3250;BME280;1637;42.020;23.992;2023-05-24T05:19:01;92775.03;;;18.70;62.63
3250;BME280;1637;42.020;23.992;2023-05-24T05:21:29;92768.63;;;18.37;63.71
3250;BME280;1637;42.020;23.992;2023-05-24T05:23:57;92768.84;;;18.70;62.41
3250;BME280;1637;42.020;23.992;2023-05-24T05:26:25;92767.91;;;18.82;62.24
3250;BME280;1637;42.020;23.992;2023-05-24T05:28:52;92765.44;;;18.20;64.76
3250;BME280;1637;42.020;23.992;2023-05-24T05:31:20;92763.94;;;19.19;62.63
3250;BME280;1637;42.020;23.992;2023-05-24T05:33:47;92764.91;;;18.80;63.83
3250;BME280;1637;42.020;23.992;2023-05-24T05:36:14;92772.78;;;19.47;61.73
3250;BME280;1637;42.020;23.992;2023-05-24T05:38:41;92762.84;;;20.43;58.05
3250;BME280;1637;42.020;23.992;2023-05-24T05:41:08;92772.75;;;20.32;58.09
3250;BME280;1637;42.020;23.992;2023-05-24T05:43:37;92761.97;;;19.80;59.60
3250;BME280;1637;42.020;23.992;2023-05-24T05:46:04;92775.16;;;19.97;58.86
3250;BME280;1637;42.020;23.992;2023-05-24T05:48:31;92777.78;;;19.91;59.27
3250;BME280;1637;42.020;23.992;2023-05-24T05:50:57;92769.41;;;19.71;60.53
3250;BME280;1637;42.020;23.992;2023-05-24T05:53:24;92774.44;;;20.53;57.37
3250;BME280;1637;42.020;23.992;2023-05-24T05:55:51;92786.91;;;21.22;56.33
3250;BME280;1637;42.020;23.992;2023-05-24T05:58:18;92777.81;;;21.40;55.42
3250;BME280;1637;42.020;23.992;2023-05-24T06:00:46;92777.91;;;20.53;58.42
3250;BME280;1637;42.020;23.992;2023-05-24T06:03:13;92774.22;;;21.63;56.08
3250;BME280;1637;42.020;23.992;2023-05-24T06:05:40;92771.31;;;21.81;55.24
3250;BME280;1637;42.020;23.992;2023-05-24T06:08:07;92778.16;;;22.26;53.90
3250;BME280;1637;42.020;23.992;2023-05-24T06:10:34;92776.19;;;21.18;56.41
3250;BME280;1637;42.020;23.992;2023-05-24T06:13:02;92775.16;;;21.45;56.94
3250;BME280;1637;42.020;23.992;2023-05-24T06:15:29;92780.56;;;22.19;54.12
3250;BME280;1637;42.020;23.992;2023-05-24T06:17:59;92782.72;;;22.15;54.76
3250;BME280;1637;42.020;23.992;2023-05-24T06:20:26;92776.91;;;22.62;53.97
3250;BME280;1637;42.020;23.992;2023-05-24T06:22:53;92767.09;;;22.15;55.89
3250;BME280;1637;42.020;23.992;2023-05-24T06:25:21;92780.50;;;22.54;54.33
3250;BME280;1637;42.020;23.992;2023-05-24T06:27:49;92780.50;;;22.74;53.39
3250;BME280;1637;42.020;23.992;2023-05-24T06:30:16;92773.66;;;22.79;53.18
3250;BME280;1637;42.020;23.992;2023-05-24T06:32:43;92776.00;;;22.51;52.80
3250;BME280;1637;42.020;23.992;2023-05-24T06:35:11;92783.50;;;23.43;50.44
3250;BME280;1637;42.020;23.992;2023-05-24T06:37:38;92704.94;;;22.66;51.78
3250;BME280;1637;42.020;23.992;2023-05-24T06:40:06;92780.41;;;22.83;52.77
3250;BME280;1637;42.020;23.992;2023-05-24T06:42:34;92780.47;;;23.61;51.56
3250;BME280;1637;42.020;23.992;2023-05-24T06:45:01;92783.28;;;23.72;51.15
3250;BME280;1637;42.020;23.992;2023-05-24T06:47:28;92778.03;;;24.31;48.67
3250;BME280;1637;42.020;23.992;2023-05-24T06:49:55;92774.16;;;24.49;47.67
3250;BME280;1637;42.020;23.992;2023-05-24T06:52:23;92775.25;;;24.26;48.27
3250;BME280;1637;42.020;23.992;2023-05-24T06:54:51;92772.13;;;24.44;47.92
3250;BME280;1637;42.020;23.992;2023-05-24T06:57:18;92768.75;;;24.66;47.02
3250;BME280;1637;42.020;23.992;2023-05-24T06:59:44;92768.19;;;24.51;47.26
3250;BME280;1637;42.020;23.992;2023-05-24T07:02:11;92759.53;;;23.84;49.58
3250;BME280;1637;42.020;23.992;2023-05-24T07:04:38;92768.03;;;24.71;47.74
3250;BME280;1637;42.020;23.992;2023-05-24T07:07:07;92752.69;;;23.42;50.00
3250;BME280;1637;42.020;23.992;2023-05-24T07:09:39;92756.72;;;25.06;47.35
3250;BME280;1637;42.020;23.992;2023-05-24T07:12:06;92757.13;;;24.88;47.94
3250;BME280;1637;42.020;23.992;2023-05-24T07:14:33;92749.75;;;24.46;49.50
3250;BME280;1637;42.020;23.992;2023-05-24T07:17:01;92752.72;;;25.02;48.79
3250;BME280;1637;42.020;23.992;2023-05-24T07:19:27;92749.13;;;24.79;47.92
3250;BME280;1637;42.020;23.992;2023-05-24T07:21:54;92744.56;;;24.59;48.87
3250;BME280;1637;42.020;23.992;2023-05-24T07:24:21;92748.44;;;24.36;49.40
3250;BME280;1637;42.020;23.992;2023-05-24T07:26:50;92754.31;;;24.65;48.53
3250;BME280;1637;42.020;23.992;2023-05-24T07:29:18;92772.28;;;24.78;49.21
3250;BME280;1637;42.020;23.992;2023-05-24T07:31:45;92749.03;;;25.38;49.07
3250;BME280;1637;42.020;23.992;2023-05-24T07:34:12;92754.38;;;25.75;46.15
3250;BME280;1637;42.020;23.992;2023-05-24T07:36:40;92760.06;;;26.11;44.69
3250;BME280;1637;42.020;23.992;2023-05-24T07:39:07;92749.81;;;25.50;46.18
3250;BME280;1637;42.020;23.992;2023-05-24T07:41:35;92754.03;;;25.28;47.40
3250;BME280;1637;42.020;23.992;2023-05-24T07:44:03;92782.50;;;22.94;52.23
3250;BME280;1637;42.020;23.992;2023-05-24T07:46:30;92744.81;;;24.18;46.42
3250;BME280;1637;42.020;23.992;2023-05-24T07:48:58;92757.75;;;25.20;45.12
3250;BME280;1637;42.020;23.992;2023-05-24T07:51:25;92753.38;;;24.26;47.18
3250;BME280;1637;42.020;23.992;2023-05-24T07:53:52;92739.88;;;24.22;50.62
3250;BME280;1637;42.020;23.992;2023-05-24T07:56:19;92740.53;;;25.08;43.59
3250;BME280;1637;42.020;23.992;2023-05-24T07:58:46;92743.63;;;25.77;42.70
3250;BME280;1637;42.020;23.992;2023-05-24T08:01:17;92756.31;;;26.02;43.53
3250;BME280;1637;42.020;23.992;2023-05-24T08:03:45;92748.25;;;26.60;42.72
3250;BME280;1637;42.020;23.992;2023-05-24T08:06:12;92746.84;;;27.06;41.77
3250;BME280;1637;42.020;23.992;2023-05-24T08:08:38;92742.72;;;26.66;42.69
3250;BME280;1637;42.020;23.992;2023-05-24T08:11:06;92743.63;;;26.91;42.28
3250;BME280;1637;42.020;23.992;2023-05-24T08:13:33;92745.97;;;26.70;40.14
3250;BME280;1637;42.020;23.992;2023-05-24T08:16:00;92735.03;;;27.17;40.56
3250;BME280;1637;42.020;23.992;2023-05-24T08:18:28;92744.31;;;26.28;41.46
3250;BME280;1637;42.020;23.992;2023-05-24T08:20:55;92743.09;;;26.07;40.86
3250;BME280;1637;42.020;23.992;2023-05-24T08:23:22;92733.09;;;26.26;38.46
3250;BME280;1637;42.020;23.992;2023-05-24T08:25:48;92733.56;;;26.52;37.86
3250;BME280;1637;42.020;23.992;2023-05-24T08:28:15;92739.69;;;26.81;38.57
3250;BME280;1637;42.020;23.992;2023-05-24T08:30:42;92736.84;;;27.03;38.18
3250;BME280;1637;42.020;23.992;2023-05-24T08:33:09;92735.16;;;25.75;38.73
3250;BME280;1637;42.020;23.992;2023-05-24T08:35:37;92740.91;;;25.77;39.02
3250;BME280;1637;42.020;23.992;2023-05-24T08:38:04;92734.38;;;26.02;38.40
3250;BME280;1637;42.020;23.992;2023-05-24T08:40:31;92745.59;;;26.16;39.21
3250;BME280;1637;42.020;23.992;2023-05-24T08:43:00;92739.09;;;27.04;37.14
3250;BME280;1637;42.020;23.992;2023-05-24T08:45:29;92748.09;;;26.14;38.49
3250;BME280;1637;42.020;23.992;2023-05-24T08:47:57;92741.34;;;26.15;39.70
3250;BME280;1637;42.020;23.992;2023-05-24T08:50:25;92737.13;;;26.08;39.03
3250;BME280;1637;42.020;23.992;2023-05-24T08:52:54;92736.59;;;24.61;43.80
3250;BME280;1637;42.020;23.992;2023-05-24T08:55:21;92745.50;;;25.04;41.59
3250;BME280;1637;42.020;23.992;2023-05-24T08:57:49;92739.63;;;25.89;39.38
3250;BME280;1637;42.020;23.992;2023-05-24T09:00:17;92741.03;;;25.12;41.27
3250;BME280;1637;42.020;23.992;2023-05-24T09:02:45;92738.88;;;25.55;40.08
3250;BME280;1637;42.020;23.992;2023-05-24T09:05:12;92738.63;;;25.92;39.54
3250;BME280;1637;42.020;23.992;2023-05-24T09:07:42;92743.63;;;25.66;38.55
3250;BME280;1637;42.020;23.992;2023-05-24T09:10:11;92738.56;;;26.26;37.68
3250;BME280;1637;42.020;23.992;2023-05-24T09:12:39;92747.66;;;26.84;38.24
3250;BME280;1637;42.020;23.992;2023-05-24T09:15:10;92748.41;;;26.85;39.22
3250;BME280;1637;42.020;23.992;2023-05-24T09:17:37;92752.91;;;26.88;37.58
3250;BME280;1637;42.020;23.992;2023-05-24T09:20:06;92747.00;;;26.61;37.85
3250;BME280;1637;42.020;23.992;2023-05-24T09:22:34;92755.09;;;25.92;39.22
3250;BME280;1637;42.020;23.992;2023-05-24T09:25:03;92747.13;;;25.72;39.84
3250;BME280;1637;42.020;23.992;2023-05-24T09:27:32;92747.63;;;25.76;39.61
3250;BME280;1637;42.020;23.992;2023-05-24T09:30:00;92745.63;;;25.82;40.98
3250;BME280;1637;42.020;23.992;2023-05-24T09:32:29;92743.50;;;24.99;40.85
3250;BME280;1637;42.020;23.992;2023-05-24T09:34:57;92726.38;;;24.13;43.81
3250;BME280;1637;42.020;23.992;2023-05-24T09:37:25;92733.91;;;24.78;43.60
3250;BME280;1637;42.020;23.992;2023-05-24T09:39:54;92734.81;;;24.47;42.79
3250;BME280;1637;42.020;23.992;2023-05-24T09:42:24;92736.50;;;24.39;44.28
3250;BME280;1637;42.020;23.992;2023-05-24T09:44:59;92734.09;;;24.57;43.59
3250;BME280;1637;42.020;23.992;2023-05-24T09:47:30;92744.78;;;25.15;42.45
3250;BME280;1637;42.020;23.992;2023-05-24T09:49:57;92747.09;;;25.55;39.07
3250;BME280;1637;42.020;23.992;2023-05-24T09:52:24;92743.09;;;25.34;40.63
3250;BME280;1637;42.020;23.992;2023-05-24T09:54:51;92744.56;;;25.41;40.54
3250;BME280;1637;42.020;23.992;2023-05-24T09:57:18;92750.78;;;25.24;39.48
3250;BME280;1637;42.020;23.992;2023-05-24T09:59:47;92739.56;;;25.39;40.14
3250;BME280;1637;42.020;23.992;2023-05-24T10:02:16;92747.13;;;25.66;38.69
3250;BME280;1637;42.020;23.992;2023-05-24T10:04:45;92741.38;;;25.70;39.96
3250;BME280;1637;42.020;23.992;2023-05-24T10:07:13;92748.84;;;25.81;38.53
3250;BME280;1637;42.020;23.992;2023-05-24T10:09:41;92755.84;;;26.15;38.22
3250;BME280;1637;42.020;23.992;2023-05-24T10:12:10;92734.66;;;24.78;40.28
3250;BME280;1637;42.020;23.992;2023-05-24T10:14:37;92736.78;;;24.46;41.02
3250;BME280;1637;42.020;23.992;2023-05-24T10:17:05;92734.59;;;25.32;40.49
3250;BME280;1637;42.020;23.992;2023-05-24T10:19:34;92729.16;;;24.67;41.21
3250;BME280;1637;42.020;23.992;2023-05-24T10:22:06;92723.69;;;24.67;40.13
3250;BME280;1637;42.020;23.992;2023-05-24T10:24:37;92722.72;;;24.76;41.38
3250;BME280;1637;42.020;23.992;2023-05-24T10:27:09;92688.44;;;23.52;40.96
3250;BME280;1637;42.020;23.992;2023-05-24T10:29:46;92715.47;;;24.67;41.52
3250;BME280;1637;42.020;23.992;2023-05-24T10:32:15;92711.91;;;25.43;39.77
3250;BME280;1637;42.020;23.992;2023-05-24T10:34:45;92706.38;;;24.39;40.70
3250;BME280;1637;42.020;23.992;2023-05-24T10:37:13;92709.91;;;24.02;39.63
3250;BME280;1637;42.020;23.992;2023-05-24T10:39:42;92702.22;;;24.49;41.07
3250;BME280;1637;42.020;23.992;2023-05-24T10:42:11;92704.69;;;25.79;38.79
3250;BME280;1637;42.020;23.992;2023-05-24T10:44:38;92705.69;;;25.98;37.92
3250;BME280;1637;42.020;23.992;2023-05-24T10:47:09;92705.66;;;26.15;37.43
3250;BME280;1637;42.020;23.992;2023-05-24T10:49:36;92700.94;;;25.98;38.23
3250;BME280;1637;42.020;23.992;2023-05-24T10:52:09;92694.97;;;25.44;38.06
3250;BME280;1637;42.020;23.992;2023-05-24T10:54:36;92713.13;;;25.19;35.89
3250;BME280;1637;42.020;23.992;2023-05-24T10:57:03;92708.41;;;25.25;35.45
3250;BME280;1637;42.020;23.992;2023-05-24T10:59:33;92703.16;;;25.11;36.57
3250;BME280;1637;42.020;23.992;2023-05-24T11:02:05;92688.75;;;25.83;35.85
3250;BME280;1637;42.020;23.992;2023-05-24T11:04:36;92703.94;;;25.61;33.56
3250;BME280;1637;42.020;23.992;2023-05-24T11:07:05;92700.22;;;25.53;35.00
3250;BME280;1637;42.020;23.992;2023-05-24T11:09:35;92700.72;;;25.68;35.11
3250;BME280;1637;42.020;23.992;2023-05-24T11:12:06;92696.97;;;25.88;34.05
3250;BME280;1637;42.020;23.992;2023-05-24T11:14:35;92700.47;;;25.83;35.04
3250;BME280;1637;42.020;23.992;2023-05-24T11:17:06;92696.47;;;25.51;32.98
3250;BME280;1637;42.020;23.992;2023-05-24T11:19:34;92708.91;;;25.29;34.19
3250;BME280;1637;42.020;23.992;2023-05-24T11:22:03;92700.72;;;25.68;34.32
3250;BME280;1637;42.020;23.992;2023-05-24T11:24:31;92701.97;;;25.79;33.55
3250;BME280;1637;42.020;23.992;2023-05-24T11:27:00;92708.44;;;25.98;33.33
3250;BME280;1637;42.020;23.992;2023-05-24T11:29:28;92696.47;;;25.62;37.37
3250;BME280;1637;42.020;23.992;2023-05-24T11:31:56;92710.19;;;25.51;32.78
3250;BME280;1637;42.020;23.992;2023-05-24T11:34:28;92699.91;;;25.01;32.28
3250;BME280;1637;42.020;23.992;2023-05-24T11:36:57;92693.44;;;25.04;33.04
3250;BME280;1637;42.020;23.992;2023-05-24T11:39:28;92692.22;;;25.33;32.79
3250;BME280;1637;42.020;23.992;2023-05-24T11:41:55;92681.03;;;25.53;33.97
3250;BME280;1637;42.020;23.992;2023-05-24T11:44:23;92696.47;;;25.56;33.47
3250;BME280;1637;42.020;23.992;2023-05-24T11:46:56;92692.22;;;25.39;32.94
3250;BME280;1637;42.020;23.992;2023-05-24T11:49:23;92686.59;;;24.77;33.86
3250;BME280;1637;42.020;23.992;2023-05-24T11:51:52;92691.41;;;24.93;35.39
3250;BME280;1637;42.020;23.992;2023-05-24T11:54:20;92685.97;;;25.10;35.82
3250;BME280;1637;42.020;23.992;2023-05-24T11:56:47;92679.28;;;25.33;35.79
3250;BME280;1637;42.020;23.992;2023-05-24T11:59:15;92682.78;;;25.56;34.84
3250;BME280;1637;42.020;23.992;2023-05-24T12:01:44;92685.00;;;25.36;35.46
3250;BME280;1637;42.020;23.992;2023-05-24T12:04:11;92668.28;;;25.45;34.39
3250;BME280;1637;42.020;23.992;2023-05-24T12:06:39;92678.03;;;25.29;34.62
3250;BME280;1637;42.020;23.992;2023-05-24T12:09:06;92679.13;;;24.66;34.80
3250;BME280;1637;42.020;23.992;2023-05-24T12:11:37;92677.16;;;24.84;32.35
3250;BME280;1637;42.020;23.992;2023-05-24T12:14:05;92684.47;;;25.20;33.44
3250;BME280;1637;42.020;23.992;2023-05-24T12:16:32;92679.50;;;25.58;31.33
3250;BME280;1637;42.020;23.992;2023-05-24T12:19:01;92675.53;;;25.48;31.40
3250;BME280;1637;42.020;23.992;2023-05-24T12:21:31;92687.00;;;25.46;31.57
3250;BME280;1637;42.020;23.992;2023-05-24T12:24:10;92684.00;;;25.44;32.28
3250;BME280;1637;42.020;23.992;2023-05-24T12:26:40;92664.81;;;25.27;31.23
3250;BME280;1637;42.020;23.992;2023-05-24T12:29:08;92683.41;;;24.84;33.31
3250;BME280;1637;42.020;23.992;2023-05-24T12:31:36;92680.75;;;25.23;31.73
3250;BME280;1637;42.020;23.992;2023-05-24T12:34:04;92677.50;;;25.08;32.54
3250;BME280;1637;42.020;23.992;2023-05-24T12:36:32;92668.50;;;24.96;33.60
3250;BME280;1637;42.020;23.992;2023-05-24T12:39:14;92670.19;;;24.83;33.56
3250;BME280;1637;42.020;23.992;2023-05-24T12:41:42;92672.25;;;24.99;32.25
3250;BME280;1637;42.020;23.992;2023-05-24T12:44:10;92696.94;;;25.10;34.29
3250;BME280;1637;42.020;23.992;2023-05-24T12:46:37;92663.56;;;25.12;35.30
3250;BME280;1637;42.020;23.992;2023-05-24T12:49:05;92670.22;;;24.88;33.65
3250;BME280;1637;42.020;23.992;2023-05-24T12:51:32;92669.91;;;24.75;34.64
3250;BME280;1637;42.020;23.992;2023-05-24T12:53:59;92665.91;;;24.65;35.01
3250;BME280;1637;42.020;23.992;2023-05-24T12:56:29;92659.59;;;23.88;36.61
3250;BME280;1637;42.020;23.992;2023-05-24T12:58:56;92659.34;;;23.92;35.53
3250;BME280;1637;42.020;23.992;2023-05-24T13:01:22;92653.28;;;23.40;36.96
3250;BME280;1637;42.020;23.992;2023-05-24T13:03:50;92655.25;;;24.19;34.87
3250;BME280;1637;42.020;23.992;2023-05-24T13:06:18;92657.41;;;24.57;35.29
3250;BME280;1637;42.020;23.992;2023-05-24T13:08:45;92634.50;;;24.49;35.48
3250;BME280;1637;42.020;23.992;2023-05-24T13:11:12;92661.94;;;24.77;33.04
3250;BME280;1637;42.020;23.992;2023-05-24T13:13:39;92654.84;;;25.13;33.37
3250;BME280;1637;42.020;23.992;2023-05-24T13:16:05;92670.97;;;24.94;35.64